Domov               UVHVVR             MKGP            O straneh              
ZDRAVSTVENO VARSTVO RASTLIN
  MREŽA AGROMET. POSTAJ
 ► PROGNOSTIČNA OBVESTILA
AGROMETEOROLOŠKI PODATKI -
ARSO
OBVLADOVANJE TVEGANJ ZARADI
NEUGODNIH VREMENSKIH RAZMER
  ► NARAVNE NESREČE
  ► SUŠA/MOČA
  ► NAMAKANJE
  ► ŽLED (gozdarstvo)
KARTOGRAFSKI PRIKAZI
SPLETNE POVEZAVE
PROJEKTI IN PUBLIKACIJE

AGROMETEOROLOŠKA MREŽA: VREMENSKE POSTAJE IN FENOLOŠKA OPAZOVANJA

Pregled podatkov za lokacijo Savci, meteorološka postaja 27387

Pregled senzorjev na lokaciji

ID Ime Zadnja
vrednost
Datum
zadnje
spremembe
Tip
senzorja
4391 Omočenost lista (U) 0 U 23.3.2019 00:30 A730WET
4390 Padavine (mm) 0 mm 23.3.2019 00:29 Generic 0.2 mm
4395 Relativna vlaga 2 m (% RH) 73,55 % RH 23.3.2019 00:29 Generic 0 - 100 %
4394 Temperatura 2 m (°C) 2,91 °C 23.3.2019 00:30 Generic -40 - +60 °C

Pregled podatkov zadnjih 24 ur

Zap.
št.
Datum in čas Savci
Omočenost
lista
Padavine Relativna
vlaga
2
m
Temperatura
2
m
1 23.3.2019 00:00
2 22.3.2019 23:30 0 0 73,6 2,9
3 22.3.2019 23:00 0 0 70 3,4
4 22.3.2019 22:30 0 0 69,8 3,7
5 22.3.2019 22:00 0 0 68,5 4
6 22.3.2019 21:30 0 0 65,9 4,7
7 22.3.2019 21:00 0 0 65,5 5,1
8 22.3.2019 20:30 0 0 63,4 5,9
9 22.3.2019 20:00 0 0 61,4 6,4
10 22.3.2019 19:30 0 0 57,3 7,4
11 22.3.2019 19:00 0 0 56,8 8,2
12 22.3.2019 18:30 0 0 48,1 10
13 22.3.2019 18:00 0 0 49,3 11,4
14 22.3.2019 17:30 0 0 37 13,8
15 22.3.2019 17:00 0 0 25,5 15,2
16 22.3.2019 16:30 0 0 27,6 15,6
17 22.3.2019 16:00 0 0 26,7 16,1
18 22.3.2019 15:30 0 0 26,8 16,1
19 22.3.2019 15:00 0 0 25,4 16,3
20 22.3.2019 14:30 0 0 25,3 16,2
21 22.3.2019 14:00 0 0 28,1 15,9
22 22.3.2019 13:30 0 0 29,9 15,9
23 22.3.2019 13:00 0 0 31,3 15,3
24 22.3.2019 12:30 0 0 31,6 14,9
25 22.3.2019 12:00 0 0 33,4 14,2
26 22.3.2019 11:30 0 0 34,5 13,7
27 22.3.2019 11:00 0 0 37,2 13,1
28 22.3.2019 10:30 0 0 43,4 12
29 22.3.2019 10:00 0 0 51,1 10,7
30 22.3.2019 09:30 0 0 52,6 9,7
31 22.3.2019 09:00 0 0 64,6 7,9
32 22.3.2019 08:30 1 0 73,1 5,9
33 22.3.2019 08:00 10 0 80 3,7
34 22.3.2019 07:30 6 0 84,9 1,5
35 22.3.2019 07:00 2 0 93,4 -0,4
36 22.3.2019 06:30 1 0 97,7 -2,5
37 22.3.2019 06:00 0 0 98,2 -2,8
38 22.3.2019 05:30 0 0 98,1 -2,7
39 22.3.2019 05:00 1 0 97,9 -2,5
40 22.3.2019 04:30 1 0 97,8 -2,3
41 22.3.2019 04:00 1 0 97,1 -2,1
42 22.3.2019 03:30 1 0 96,7 -2,1
43 22.3.2019 03:00 1 0 95,8 -1,8
44 22.3.2019 02:30 10 0 94,7 -1,6
45 22.3.2019 02:00 10 0 94,1 -1,4
46 22.3.2019 01:30 8 0 92,9 -1,1
47 22.3.2019 01:00 4 0 91,5 -0,9
48 22.3.2019 00:30 2 0 89,5 -0,6
© 2011 Ministrstvo za kmetijstvo, gozdarstvo in prehrano. Vse pravice pridržane.